sensor_id;sensor_type;location;lat;lon;timestamp;P1;durP1;ratioP1;P2;durP2;ratioP2
73593;SDS011;64760;53.404;23.498;2023-07-31T00:01:38;17.55;;;9.57;;
73593;SDS011;64760;53.404;23.498;2023-07-31T00:04:04;14.45;;;8.95;;
73593;SDS011;64760;53.404;23.498;2023-07-31T00:06:30;16.85;;;9.32;;
73593;SDS011;64760;53.404;23.498;2023-07-31T00:08:56;15.20;;;8.82;;
73593;SDS011;64760;53.404;23.498;2023-07-31T00:11:23;15.30;;;8.65;;
73593;SDS011;64760;53.404;23.498;2023-07-31T00:13:49;14.30;;;8.30;;
73593;SDS011;64760;53.404;23.498;2023-07-31T00:16:15;22.67;;;9.57;;
73593;SDS011;64760;53.404;23.498;2023-07-31T00:18:41;22.08;;;8.75;;
73593;SDS011;64760;53.404;23.498;2023-07-31T00:21:07;19.67;;;8.73;;
73593;SDS011;64760;53.404;23.498;2023-07-31T00:23:33;13.52;;;7.70;;
73593;SDS011;64760;53.404;23.498;2023-07-31T00:25:59;15.30;;;7.95;;
73593;SDS011;64760;53.404;23.498;2023-07-31T00:28:25;15.63;;;7.90;;
73593;SDS011;64760;53.404;23.498;2023-07-31T00:30:51;13.55;;;8.02;;
73593;SDS011;64760;53.404;23.498;2023-07-31T00:33:17;13.90;;;8.30;;
73593;SDS011;64760;53.404;23.498;2023-07-31T00:35:44;15.13;;;8.15;;
73593;SDS011;64760;53.404;23.498;2023-07-31T00:38:10;13.57;;;8.60;;
73593;SDS011;64760;53.404;23.498;2023-07-31T00:40:36;11.90;;;7.32;;
73593;SDS011;64760;53.404;23.498;2023-07-31T00:43:04;10.75;;;6.95;;
73593;SDS011;64760;53.404;23.498;2023-07-31T00:45:31;12.55;;;7.25;;
73593;SDS011;64760;53.404;23.498;2023-07-31T00:47:57;12.40;;;8.18;;
73593;SDS011;64760;53.404;23.498;2023-07-31T00:50:24;13.18;;;9.13;;
73593;SDS011;64760;53.404;23.498;2023-07-31T00:52:51;16.83;;;8.30;;
73593;SDS011;64760;53.404;23.498;2023-07-31T00:55:18;13.82;;;8.35;;
73593;SDS011;64760;53.404;23.498;2023-07-31T00:57:44;14.10;;;8.70;;
73593;SDS011;64760;53.404;23.498;2023-07-31T01:00:12;14.77;;;8.70;;
73593;SDS011;64760;53.404;23.498;2023-07-31T01:02:38;14.23;;;9.10;;
73593;SDS011;64760;53.404;23.498;2023-07-31T01:05:04;15.98;;;9.00;;
73593;SDS011;64760;53.404;23.498;2023-07-31T01:10:25;17.52;;;10.35;;
73593;SDS011;64760;53.404;23.498;2023-07-31T01:12:52;22.48;;;12.18;;
73593;SDS011;64760;53.404;23.498;2023-07-31T01:15:19;22.23;;;12.00;;
73593;SDS011;64760;53.404;23.498;2023-07-31T01:17:45;15.98;;;10.57;;
73593;SDS011;64760;53.404;23.498;2023-07-31T01:20:15;19.88;;;11.38;;
73593;SDS011;64760;53.404;23.498;2023-07-31T01:28:11;18.63;;;9.55;;
73593;SDS011;64760;53.404;23.498;2023-07-31T01:30:41;16.10;;;9.52;;
73593;SDS011;64760;53.404;23.498;2023-07-31T01:33:09;17.15;;;9.93;;
73593;SDS011;64760;53.404;23.498;2023-07-31T01:35:36;13.60;;;8.77;;
73593;SDS011;64760;53.404;23.498;2023-07-31T01:38:02;16.38;;;9.85;;
73593;SDS011;64760;53.404;23.498;2023-07-31T01:40:29;14.68;;;9.57;;
73593;SDS011;64760;53.404;23.498;2023-07-31T01:42:55;14.75;;;9.27;;
73593;SDS011;64760;53.404;23.498;2023-07-31T01:45:21;16.00;;;10.80;;
73593;SDS011;64760;53.404;23.498;2023-07-31T01:47:47;16.27;;;9.60;;
73593;SDS011;64760;53.404;23.498;2023-07-31T01:50:13;15.32;;;8.75;;
73593;SDS011;64760;53.404;23.498;2023-07-31T01:52:40;18.70;;;9.95;;
73593;SDS011;64760;53.404;23.498;2023-07-31T01:55:08;19.67;;;11.52;;
73593;SDS011;64760;53.404;23.498;2023-07-31T01:57:36;24.70;;;11.25;;
73593;SDS011;64760;53.404;23.498;2023-07-31T02:00:02;23.55;;;11.25;;
73593;SDS011;64760;53.404;23.498;2023-07-31T02:02:38;26.40;;;11.95;;
73593;SDS011;64760;53.404;23.498;2023-07-31T02:05:04;20.45;;;11.45;;
73593;SDS011;64760;53.404;23.498;2023-07-31T02:07:31;22.13;;;10.65;;
73593;SDS011;64760;53.404;23.498;2023-07-31T02:09:57;20.67;;;11.27;;
73593;SDS011;64760;53.404;23.498;2023-07-31T02:12:23;19.83;;;10.63;;
73593;SDS011;64760;53.404;23.498;2023-07-31T02:14:49;18.65;;;10.27;;
73593;SDS011;64760;53.404;23.498;2023-07-31T02:17:15;20.52;;;11.15;;
73593;SDS011;64760;53.404;23.498;2023-07-31T02:19:41;22.23;;;9.88;;
73593;SDS011;64760;53.404;23.498;2023-07-31T02:22:08;14.15;;;9.80;;
73593;SDS011;64760;53.404;23.498;2023-07-31T02:24:34;21.17;;;10.88;;
73593;SDS011;64760;53.404;23.498;2023-07-31T02:33:40;25.52;;;11.43;;
73593;SDS011;64760;53.404;23.498;2023-07-31T02:36:06;20.80;;;10.57;;
73593;SDS011;64760;53.404;23.498;2023-07-31T02:38:33;16.15;;;9.48;;
73593;SDS011;64760;53.404;23.498;2023-07-31T02:40:59;13.98;;;8.73;;
73593;SDS011;64760;53.404;23.498;2023-07-31T02:43:27;14.60;;;9.05;;
73593;SDS011;64760;53.404;23.498;2023-07-31T02:45:53;12.32;;;9.35;;
73593;SDS011;64760;53.404;23.498;2023-07-31T02:48:20;12.10;;;8.30;;
73593;SDS011;64760;53.404;23.498;2023-07-31T02:50:47;13.95;;;8.30;;
73593;SDS011;64760;53.404;23.498;2023-07-31T02:53:13;15.35;;;9.45;;
73593;SDS011;64760;53.404;23.498;2023-07-31T02:55:40;12.05;;;8.05;;
73593;SDS011;64760;53.404;23.498;2023-07-31T02:58:07;12.52;;;8.55;;
73593;SDS011;64760;53.404;23.498;2023-07-31T03:00:33;13.82;;;8.95;;
73593;SDS011;64760;53.404;23.498;2023-07-31T03:02:59;16.20;;;9.77;;
73593;SDS011;64760;53.404;23.498;2023-07-31T03:05:25;17.08;;;9.82;;
73593;SDS011;64760;53.404;23.498;2023-07-31T03:07:52;19.05;;;10.25;;
73593;SDS011;64760;53.404;23.498;2023-07-31T03:10:18;17.23;;;9.77;;
73593;SDS011;64760;53.404;23.498;2023-07-31T03:12:46;18.08;;;10.50;;
73593;SDS011;64760;53.404;23.498;2023-07-31T03:15:12;17.27;;;10.23;;
73593;SDS011;64760;53.404;23.498;2023-07-31T03:17:39;18.55;;;10.73;;
73593;SDS011;64760;53.404;23.498;2023-07-31T03:20:05;16.35;;;9.57;;
73593;SDS011;64760;53.404;23.498;2023-07-31T03:22:32;18.75;;;9.93;;
73593;SDS011;64760;53.404;23.498;2023-07-31T03:24:58;17.27;;;8.27;;
73593;SDS011;64760;53.404;23.498;2023-07-31T03:27:24;13.00;;;8.00;;
73593;SDS011;64760;53.404;23.498;2023-07-31T03:29:50;14.00;;;8.75;;
73593;SDS011;64760;53.404;23.498;2023-07-31T03:34:43;18.15;;;9.65;;
73593;SDS011;64760;53.404;23.498;2023-07-31T03:37:10;14.30;;;8.45;;
73593;SDS011;64760;53.404;23.498;2023-07-31T03:39:36;16.52;;;8.43;;
73593;SDS011;64760;53.404;23.498;2023-07-31T03:42:02;18.67;;;9.25;;
73593;SDS011;64760;53.404;23.498;2023-07-31T03:44:29;27.33;;;10.85;;
73593;SDS011;64760;53.404;23.498;2023-07-31T03:46:55;26.75;;;11.27;;
73593;SDS011;64760;53.404;23.498;2023-07-31T03:49:21;26.88;;;11.07;;
73593;SDS011;64760;53.404;23.498;2023-07-31T03:51:47;19.48;;;9.75;;
73593;SDS011;64760;53.404;23.498;2023-07-31T03:54:13;12.88;;;8.20;;
73593;SDS011;64760;53.404;23.498;2023-07-31T03:56:40;11.32;;;7.82;;
73593;SDS011;64760;53.404;23.498;2023-07-31T03:59:06;9.63;;;7.80;;
73593;SDS011;64760;53.404;23.498;2023-07-31T04:01:32;18.23;;;8.20;;
73593;SDS011;64760;53.404;23.498;2023-07-31T04:03:58;11.07;;;7.35;;
73593;SDS011;64760;53.404;23.498;2023-07-31T04:06:24;13.27;;;7.50;;
73593;SDS011;64760;53.404;23.498;2023-07-31T04:08:50;9.25;;;6.78;;
73593;SDS011;64760;53.404;23.498;2023-07-31T04:11:16;11.13;;;7.22;;
73593;SDS011;64760;53.404;23.498;2023-07-31T04:13:42;11.32;;;7.53;;
73593;SDS011;64760;53.404;23.498;2023-07-31T04:16:09;11.82;;;7.63;;
73593;SDS011;64760;53.404;23.498;2023-07-31T04:18:35;11.13;;;7.38;;
73593;SDS011;64760;53.404;23.498;2023-07-31T04:21:01;10.02;;;7.30;;
73593;SDS011;64760;53.404;23.498;2023-07-31T04:23:28;9.85;;;7.28;;
73593;SDS011;64760;53.404;23.498;2023-07-31T04:25:54;13.68;;;8.15;;
73593;SDS011;64760;53.404;23.498;2023-07-31T04:28:21;11.18;;;7.47;;
73593;SDS011;64760;53.404;23.498;2023-07-31T04:30:47;10.93;;;6.82;;
73593;SDS011;64760;53.404;23.498;2023-07-31T04:33:13;11.60;;;8.30;;
73593;SDS011;64760;53.404;23.498;2023-07-31T04:35:40;12.40;;;8.35;;
73593;SDS011;64760;53.404;23.498;2023-07-31T04:38:05;11.73;;;7.38;;
73593;SDS011;64760;53.404;23.498;2023-07-31T04:40:32;10.73;;;7.20;;
73593;SDS011;64760;53.404;23.498;2023-07-31T04:42:58;11.68;;;7.75;;
73593;SDS011;64760;53.404;23.498;2023-07-31T04:45:24;8.25;;;6.50;;
73593;SDS011;64760;53.404;23.498;2023-07-31T04:47:50;11.65;;;7.93;;
73593;SDS011;64760;53.404;23.498;2023-07-31T04:50:17;9.63;;;6.47;;
73593;SDS011;64760;53.404;23.498;2023-07-31T04:52:43;17.90;;;7.45;;
73593;SDS011;64760;53.404;23.498;2023-07-31T04:55:09;9.95;;;6.70;;
73593;SDS011;64760;53.404;23.498;2023-07-31T04:57:35;10.52;;;6.95;;
73593;SDS011;64760;53.404;23.498;2023-07-31T05:00:01;8.27;;;5.88;;
73593;SDS011;64760;53.404;23.498;2023-07-31T05:04:55;10.50;;;6.93;;
73593;SDS011;64760;53.404;23.498;2023-07-31T05:07:21;9.45;;;6.78;;
73593;SDS011;64760;53.404;23.498;2023-07-31T05:09:47;8.50;;;5.85;;
73593;SDS011;64760;53.404;23.498;2023-07-31T05:12:14;9.48;;;6.25;;
73593;SDS011;64760;53.404;23.498;2023-07-31T05:18:20;7.90;;;5.88;;
73593;SDS011;64760;53.404;23.498;2023-07-31T05:20:47;8.10;;;6.38;;
73593;SDS011;64760;53.404;23.498;2023-07-31T05:23:13;7.60;;;5.53;;
73593;SDS011;64760;53.404;23.498;2023-07-31T05:25:39;9.23;;;6.40;;
73593;SDS011;64760;53.404;23.498;2023-07-31T05:28:06;7.57;;;5.93;;
73593;SDS011;64760;53.404;23.498;2023-07-31T05:30:32;8.68;;;6.45;;
73593;SDS011;64760;53.404;23.498;2023-07-31T05:32:58;7.88;;;6.28;;
73593;SDS011;64760;53.404;23.498;2023-07-31T05:35:24;12.43;;;7.10;;
73593;SDS011;64760;53.404;23.498;2023-07-31T05:37:50;11.50;;;6.80;;
73593;SDS011;64760;53.404;23.498;2023-07-31T05:40:16;8.30;;;6.75;;
73593;SDS011;64760;53.404;23.498;2023-07-31T05:42:42;7.85;;;5.90;;
73593;SDS011;64760;53.404;23.498;2023-07-31T05:45:09;7.93;;;6.07;;
73593;SDS011;64760;53.404;23.498;2023-07-31T05:47:35;10.30;;;5.72;;
73593;SDS011;64760;53.404;23.498;2023-07-31T05:50:02;8.02;;;6.95;;
73593;SDS011;64760;53.404;23.498;2023-07-31T05:52:28;8.57;;;5.95;;
73593;SDS011;64760;53.404;23.498;2023-07-31T05:54:55;8.88;;;5.82;;
73593;SDS011;64760;53.404;23.498;2023-07-31T05:57:21;7.55;;;5.70;;
73593;SDS011;64760;53.404;23.498;2023-07-31T05:59:47;8.52;;;5.90;;
73593;SDS011;64760;53.404;23.498;2023-07-31T06:02:13;9.07;;;5.78;;
73593;SDS011;64760;53.404;23.498;2023-07-31T06:04:40;9.57;;;6.00;;
73593;SDS011;64760;53.404;23.498;2023-07-31T06:07:06;9.00;;;6.35;;
73593;SDS011;64760;53.404;23.498;2023-07-31T06:09:32;9.40;;;6.10;;
73593;SDS011;64760;53.404;23.498;2023-07-31T06:11:58;8.38;;;5.53;;
73593;SDS011;64760;53.404;23.498;2023-07-31T06:14:24;9.63;;;6.03;;
73593;SDS011;64760;53.404;23.498;2023-07-31T06:16:50;7.90;;;5.82;;
73593;SDS011;64760;53.404;23.498;2023-07-31T06:19:16;9.27;;;6.15;;
73593;SDS011;64760;53.404;23.498;2023-07-31T06:21:43;8.93;;;6.20;;
73593;SDS011;64760;53.404;23.498;2023-07-31T06:24:10;8.07;;;6.30;;
73593;SDS011;64760;53.404;23.498;2023-07-31T06:26:38;10.57;;;5.90;;
73593;SDS011;64760;53.404;23.498;2023-07-31T06:29:04;8.85;;;6.38;;
73593;SDS011;64760;53.404;23.498;2023-07-31T06:31:30;6.97;;;5.28;;
73593;SDS011;64760;53.404;23.498;2023-07-31T06:33:57;7.65;;;5.50;;
73593;SDS011;64760;53.404;23.498;2023-07-31T06:36:22;8.35;;;5.97;;
73593;SDS011;64760;53.404;23.498;2023-07-31T06:38:49;7.20;;;5.40;;
73593;SDS011;64760;53.404;23.498;2023-07-31T06:41:15;8.18;;;5.72;;
73593;SDS011;64760;53.404;23.498;2023-07-31T06:43:42;8.13;;;5.70;;
73593;SDS011;64760;53.404;23.498;2023-07-31T06:46:08;7.72;;;5.28;;
73593;SDS011;64760;53.404;23.498;2023-07-31T06:48:34;9.55;;;5.10;;
73593;SDS011;64760;53.404;23.498;2023-07-31T06:51:02;5.85;;;5.07;;
73593;SDS011;64760;53.404;23.498;2023-07-31T06:53:28;6.55;;;4.80;;
73593;SDS011;64760;53.404;23.498;2023-07-31T06:55:54;8.90;;;4.90;;
73593;SDS011;64760;53.404;23.498;2023-07-31T07:00:17;7.55;;;4.70;;
73593;SDS011;64760;53.404;23.498;2023-07-31T07:02:44;7.40;;;4.80;;
73593;SDS011;64760;53.404;23.498;2023-07-31T07:05:10;6.68;;;4.60;;
73593;SDS011;64760;53.404;23.498;2023-07-31T07:07:36;6.32;;;4.25;;
73593;SDS011;64760;53.404;23.498;2023-07-31T07:10:02;8.20;;;4.47;;
73593;SDS011;64760;53.404;23.498;2023-07-31T07:12:30;7.78;;;4.10;;
73593;SDS011;64760;53.404;23.498;2023-07-31T07:14:57;7.43;;;3.28;;
73593;SDS011;64760;53.404;23.498;2023-07-31T07:17:24;6.28;;;3.65;;
73593;SDS011;64760;53.404;23.498;2023-07-31T07:22:17;6.10;;;3.95;;
73593;SDS011;64760;53.404;23.498;2023-07-31T07:24:44;6.40;;;3.80;;
73593;SDS011;64760;53.404;23.498;2023-07-31T07:27:10;5.28;;;3.88;;
73593;SDS011;64760;53.404;23.498;2023-07-31T07:29:37;6.03;;;4.03;;
73593;SDS011;64760;53.404;23.498;2023-07-31T07:32:04;5.68;;;3.85;;
73593;SDS011;64760;53.404;23.498;2023-07-31T07:34:30;5.40;;;3.28;;
73593;SDS011;64760;53.404;23.498;2023-07-31T07:36:57;6.72;;;4.47;;
73593;SDS011;64760;53.404;23.498;2023-07-31T07:39:23;6.25;;;4.03;;
73593;SDS011;64760;53.404;23.498;2023-07-31T07:41:49;5.28;;;3.15;;
73593;SDS011;64760;53.404;23.498;2023-07-31T07:44:15;6.80;;;3.55;;
73593;SDS011;64760;53.404;23.498;2023-07-31T07:46:41;5.45;;;3.70;;
73593;SDS011;64760;53.404;23.498;2023-07-31T07:49:08;4.53;;;3.53;;
73593;SDS011;64760;53.404;23.498;2023-07-31T07:51:34;4.85;;;3.10;;
73593;SDS011;64760;53.404;23.498;2023-07-31T07:54:00;9.50;;;5.15;;
73593;SDS011;64760;53.404;23.498;2023-07-31T07:56:27;5.10;;;3.63;;
73593;SDS011;64760;53.404;23.498;2023-07-31T07:58:53;4.03;;;2.47;;
73593;SDS011;64760;53.404;23.498;2023-07-31T08:01:20;7.65;;;3.70;;
73593;SDS011;64760;53.404;23.498;2023-07-31T08:03:47;3.53;;;2.45;;
73593;SDS011;64760;53.404;23.498;2023-07-31T08:06:14;4.97;;;3.28;;
73593;SDS011;64760;53.404;23.498;2023-07-31T08:08:40;5.13;;;3.63;;
73593;SDS011;64760;53.404;23.498;2023-07-31T08:11:07;5.78;;;3.20;;
73593;SDS011;64760;53.404;23.498;2023-07-31T08:13:33;6.75;;;3.55;;
73593;SDS011;64760;53.404;23.498;2023-07-31T08:15:59;6.22;;;3.35;;
73593;SDS011;64760;53.404;23.498;2023-07-31T08:18:26;6.50;;;3.17;;
73593;SDS011;64760;53.404;23.498;2023-07-31T08:20:52;4.85;;;3.10;;
73593;SDS011;64760;53.404;23.498;2023-07-31T08:23:18;6.32;;;3.67;;
73593;SDS011;64760;53.404;23.498;2023-07-31T08:25:45;5.85;;;3.20;;
73593;SDS011;64760;53.404;23.498;2023-07-31T08:30:38;4.30;;;3.30;;
73593;SDS011;64760;53.404;23.498;2023-07-31T08:33:04;4.97;;;3.20;;
73593;SDS011;64760;53.404;23.498;2023-07-31T08:35:30;5.25;;;3.35;;
73593;SDS011;64760;53.404;23.498;2023-07-31T08:37:57;5.20;;;3.40;;
73593;SDS011;64760;53.404;23.498;2023-07-31T08:40:23;5.50;;;3.97;;
73593;SDS011;64760;53.404;23.498;2023-07-31T08:42:51;5.75;;;3.72;;
73593;SDS011;64760;53.404;23.498;2023-07-31T08:45:19;4.82;;;3.40;;
73593;SDS011;64760;53.404;23.498;2023-07-31T08:47:47;6.28;;;4.35;;
73593;SDS011;64760;53.404;23.498;2023-07-31T08:50:15;5.57;;;3.50;;
73593;SDS011;64760;53.404;23.498;2023-07-31T08:52:43;4.78;;;3.28;;
73593;SDS011;64760;53.404;23.498;2023-07-31T08:55:11;5.25;;;3.58;;
73593;SDS011;64760;53.404;23.498;2023-07-31T08:57:38;4.53;;;2.63;;
73593;SDS011;64760;53.404;23.498;2023-07-31T09:00:05;5.10;;;2.78;;
73593;SDS011;64760;53.404;23.498;2023-07-31T09:02:55;4.97;;;2.60;;
73593;SDS011;64760;53.404;23.498;2023-07-31T09:05:22;4.63;;;2.85;;
73593;SDS011;64760;53.404;23.498;2023-07-31T09:07:49;3.80;;;1.90;;
73593;SDS011;64760;53.404;23.498;2023-07-31T09:10:17;4.28;;;2.45;;
73593;SDS011;64760;53.404;23.498;2023-07-31T09:12:43;3.40;;;2.03;;
73593;SDS011;64760;53.404;23.498;2023-07-31T09:15:11;5.30;;;2.53;;
73593;SDS011;64760;53.404;23.498;2023-07-31T09:17:37;5.75;;;2.40;;
73593;SDS011;64760;53.404;23.498;2023-07-31T09:20:12;3.58;;;1.90;;
73593;SDS011;64760;53.404;23.498;2023-07-31T09:22:47;4.50;;;2.15;;
73593;SDS011;64760;53.404;23.498;2023-07-31T09:25:18;3.15;;;2.15;;
73593;SDS011;64760;53.404;23.498;2023-07-31T09:28:00;4.65;;;2.65;;
73593;SDS011;64760;53.404;23.498;2023-07-31T09:30:27;5.22;;;2.78;;
73593;SDS011;64760;53.404;23.498;2023-07-31T09:33:03;3.72;;;2.17;;
73593;SDS011;64760;53.404;23.498;2023-07-31T09:35:34;5.38;;;2.65;;
73593;SDS011;64760;53.404;23.498;2023-07-31T09:38:03;4.75;;;2.38;;
73593;SDS011;64760;53.404;23.498;2023-07-31T09:40:33;5.13;;;2.63;;
73593;SDS011;64760;53.404;23.498;2023-07-31T09:43:01;4.22;;;2.30;;
73593;SDS011;64760;53.404;23.498;2023-07-31T09:45:29;4.22;;;2.35;;
73593;SDS011;64760;53.404;23.498;2023-07-31T09:47:56;4.05;;;2.10;;
73593;SDS011;64760;53.404;23.498;2023-07-31T09:50:23;3.67;;;2.42;;
73593;SDS011;64760;53.404;23.498;2023-07-31T09:52:50;4.95;;;2.22;;
73593;SDS011;64760;53.404;23.498;2023-07-31T09:55:18;6.70;;;3.88;;
73593;SDS011;64760;53.404;23.498;2023-07-31T09:57:47;3.10;;;1.40;;
73593;SDS011;64760;53.404;23.498;2023-07-31T10:00:16;3.38;;;1.70;;
73593;SDS011;64760;53.404;23.498;2023-07-31T10:02:44;3.28;;;2.00;;
73593;SDS011;64760;53.404;23.498;2023-07-31T10:05:13;3.03;;;1.65;;
73593;SDS011;64760;53.404;23.498;2023-07-31T10:07:42;4.00;;;1.55;;
73593;SDS011;64760;53.404;23.498;2023-07-31T10:10:20;3.85;;;1.30;;
73593;SDS011;64760;53.404;23.498;2023-07-31T10:12:47;2.90;;;1.70;;
73593;SDS011;64760;53.404;23.498;2023-07-31T10:15:15;3.13;;;1.55;;
73593;SDS011;64760;53.404;23.498;2023-07-31T10:17:41;4.07;;;1.50;;
73593;SDS011;64760;53.404;23.498;2023-07-31T10:20:08;2.97;;;1.52;;
73593;SDS011;64760;53.404;23.498;2023-07-31T10:22:36;4.15;;;2.60;;
73593;SDS011;64760;53.404;23.498;2023-07-31T10:25:02;3.60;;;1.70;;
73593;SDS011;64760;53.404;23.498;2023-07-31T10:27:29;4.25;;;1.67;;
73593;SDS011;64760;53.404;23.498;2023-07-31T10:29:56;4.55;;;2.05;;
73593;SDS011;64760;53.404;23.498;2023-07-31T10:32:24;4.75;;;2.35;;
73593;SDS011;64760;53.404;23.498;2023-07-31T10:34:51;4.45;;;2.08;;
73593;SDS011;64760;53.404;23.498;2023-07-31T10:40:04;3.55;;;1.75;;
73593;SDS011;64760;53.404;23.498;2023-07-31T10:42:34;4.47;;;1.52;;
73593;SDS011;64760;53.404;23.498;2023-07-31T10:45:05;2.28;;;1.20;;
73593;SDS011;64760;53.404;23.498;2023-07-31T10:47:38;3.65;;;1.70;;
73593;SDS011;64760;53.404;23.498;2023-07-31T10:52:37;3.00;;;1.73;;
73593;SDS011;64760;53.404;23.498;2023-07-31T10:55:24;2.88;;;1.40;;
73593;SDS011;64760;53.404;23.498;2023-07-31T10:57:51;4.55;;;1.70;;
73593;SDS011;64760;53.404;23.498;2023-07-31T11:00:20;3.15;;;1.85;;
73593;SDS011;64760;53.404;23.498;2023-07-31T11:03:05;4.03;;;2.10;;
73593;SDS011;64760;53.404;23.498;2023-07-31T11:05:51;2.90;;;1.70;;
73593;SDS011;64760;53.404;23.498;2023-07-31T11:08:30;4.07;;;2.15;;
73593;SDS011;64760;53.404;23.498;2023-07-31T11:11:14;2.47;;;1.50;;
73593;SDS011;64760;53.404;23.498;2023-07-31T11:13:46;3.53;;;1.70;;
73593;SDS011;64760;53.404;23.498;2023-07-31T11:16:18;3.97;;;1.95;;
73593;SDS011;64760;53.404;23.498;2023-07-31T11:18:50;3.90;;;2.30;;
73593;SDS011;64760;53.404;23.498;2023-07-31T11:21:21;4.85;;;1.88;;
73593;SDS011;64760;53.404;23.498;2023-07-31T11:23:49;3.58;;;1.90;;
73593;SDS011;64760;53.404;23.498;2023-07-31T11:26:17;4.20;;;1.98;;
73593;SDS011;64760;53.404;23.498;2023-07-31T11:28:46;5.95;;;2.10;;
73593;SDS011;64760;53.404;23.498;2023-07-31T11:31:13;3.13;;;2.03;;
73593;SDS011;64760;53.404;23.498;2023-07-31T11:33:39;4.28;;;2.22;;
73593;SDS011;64760;53.404;23.498;2023-07-31T11:36:05;3.47;;;1.80;;
73593;SDS011;64760;53.404;23.498;2023-07-31T11:38:40;2.85;;;1.67;;
73593;SDS011;64760;53.404;23.498;2023-07-31T11:41:06;3.70;;;1.63;;
73593;SDS011;64760;53.404;23.498;2023-07-31T11:43:33;3.20;;;1.80;;
73593;SDS011;64760;53.404;23.498;2023-07-31T11:48:31;2.58;;;1.50;;
73593;SDS011;64760;53.404;23.498;2023-07-31T11:51:01;4.57;;;1.52;;
73593;SDS011;64760;53.404;23.498;2023-07-31T11:53:35;3.08;;;1.65;;
73593;SDS011;64760;53.404;23.498;2023-07-31T11:56:09;2.75;;;1.33;;
73593;SDS011;64760;53.404;23.498;2023-07-31T11:58:37;4.97;;;1.83;;
73593;SDS011;64760;53.404;23.498;2023-07-31T12:01:04;3.35;;;1.77;;
73593;SDS011;64760;53.404;23.498;2023-07-31T12:03:31;3.20;;;1.42;;
73593;SDS011;64760;53.404;23.498;2023-07-31T12:05:59;3.42;;;1.63;;
73593;SDS011;64760;53.404;23.498;2023-07-31T12:08:26;3.17;;;1.70;;
73593;SDS011;64760;53.404;23.498;2023-07-31T12:10:53;3.85;;;1.60;;
73593;SDS011;64760;53.404;23.498;2023-07-31T12:13:21;2.85;;;1.50;;
73593;SDS011;64760;53.404;23.498;2023-07-31T12:15:53;3.90;;;1.70;;
73593;SDS011;64760;53.404;23.498;2023-07-31T12:18:21;3.30;;;2.08;;
73593;SDS011;64760;53.404;23.498;2023-07-31T12:20:58;3.38;;;1.52;;
73593;SDS011;64760;53.404;23.498;2023-07-31T12:23:26;3.45;;;2.03;;
73593;SDS011;64760;53.404;23.498;2023-07-31T12:28:27;4.10;;;2.03;;
73593;SDS011;64760;53.404;23.498;2023-07-31T12:30:56;3.38;;;2.08;;
73593;SDS011;64760;53.404;23.498;2023-07-31T12:33:29;6.15;;;2.70;;
73593;SDS011;64760;53.404;23.498;2023-07-31T12:35:57;3.58;;;1.98;;
73593;SDS011;64760;53.404;23.498;2023-07-31T12:38:23;2.47;;;1.65;;
73593;SDS011;64760;53.404;23.498;2023-07-31T12:40:50;2.22;;;1.33;;
73593;SDS011;64760;53.404;23.498;2023-07-31T12:43:16;6.43;;;2.20;;
73593;SDS011;64760;53.404;23.498;2023-07-31T12:45:43;5.45;;;1.73;;
73593;SDS011;64760;53.404;23.498;2023-07-31T12:48:09;4.10;;;1.85;;
73593;SDS011;64760;53.404;23.498;2023-07-31T12:50:35;3.95;;;1.80;;
73593;SDS011;64760;53.404;23.498;2023-07-31T12:53:02;5.00;;;2.15;;
73593;SDS011;64760;53.404;23.498;2023-07-31T12:55:32;6.57;;;2.30;;
73593;SDS011;64760;53.404;23.498;2023-07-31T12:58:03;7.82;;;2.67;;
73593;SDS011;64760;53.404;23.498;2023-07-31T13:00:29;4.72;;;2.13;;
73593;SDS011;64760;53.404;23.498;2023-07-31T13:05:22;3.05;;;1.80;;
73593;SDS011;64760;53.404;23.498;2023-07-31T13:07:49;5.30;;;2.03;;
73593;SDS011;64760;53.404;23.498;2023-07-31T13:10:16;5.63;;;2.17;;
73593;SDS011;64760;53.404;23.498;2023-07-31T13:12:42;4.10;;;1.95;;
73593;SDS011;64760;53.404;23.498;2023-07-31T13:15:09;5.13;;;2.35;;
73593;SDS011;64760;53.404;23.498;2023-07-31T13:17:45;7.35;;;3.10;;
73593;SDS011;64760;53.404;23.498;2023-07-31T13:20:13;5.03;;;2.55;;
73593;SDS011;64760;53.404;23.498;2023-07-31T13:22:39;4.07;;;2.20;;
73593;SDS011;64760;53.404;23.498;2023-07-31T13:25:05;3.40;;;2.28;;
73593;SDS011;64760;53.404;23.498;2023-07-31T13:27:32;4.75;;;2.50;;
73593;SDS011;64760;53.404;23.498;2023-07-31T13:29:58;4.45;;;2.15;;
73593;SDS011;64760;53.404;23.498;2023-07-31T13:32:25;5.40;;;2.00;;
73593;SDS011;64760;53.404;23.498;2023-07-31T13:34:51;4.55;;;2.03;;
73593;SDS011;64760;53.404;23.498;2023-07-31T13:37:19;4.28;;;2.30;;
73593;SDS011;64760;53.404;23.498;2023-07-31T13:39:45;6.35;;;2.22;;
73593;SDS011;64760;53.404;23.498;2023-07-31T13:42:12;7.90;;;2.50;;
73593;SDS011;64760;53.404;23.498;2023-07-31T13:44:39;4.07;;;2.38;;
73593;SDS011;64760;53.404;23.498;2023-07-31T13:47:06;6.38;;;3.40;;
73593;SDS011;64760;53.404;23.498;2023-07-31T13:51:59;13.55;;;6.70;;
73593;SDS011;64760;53.404;23.498;2023-07-31T13:54:26;16.83;;;10.48;;
73593;SDS011;64760;53.404;23.498;2023-07-31T13:56:53;3.72;;;2.10;;
73593;SDS011;64760;53.404;23.498;2023-07-31T13:59:19;2.83;;;1.80;;
73593;SDS011;64760;53.404;23.498;2023-07-31T14:04:12;4.85;;;2.33;;
73593;SDS011;64760;53.404;23.498;2023-07-31T14:06:38;4.00;;;2.22;;
73593;SDS011;64760;53.404;23.498;2023-07-31T14:09:04;4.45;;;2.45;;
73593;SDS011;64760;53.404;23.498;2023-07-31T14:11:31;4.20;;;2.40;;
73593;SDS011;64760;53.404;23.498;2023-07-31T14:13:57;5.53;;;2.58;;
73593;SDS011;64760;53.404;23.498;2023-07-31T14:16:24;4.13;;;2.20;;
73593;SDS011;64760;53.404;23.498;2023-07-31T14:18:50;3.83;;;2.00;;
73593;SDS011;64760;53.404;23.498;2023-07-31T14:21:16;4.30;;;1.77;;
73593;SDS011;64760;53.404;23.498;2023-07-31T14:23:44;4.82;;;2.53;;
73593;SDS011;64760;53.404;23.498;2023-07-31T14:26:11;6.20;;;2.70;;
73593;SDS011;64760;53.404;23.498;2023-07-31T14:28:37;6.60;;;2.78;;
73593;SDS011;64760;53.404;23.498;2023-07-31T14:31:04;6.15;;;3.50;;
73593;SDS011;64760;53.404;23.498;2023-07-31T14:33:30;5.97;;;2.83;;
73593;SDS011;64760;53.404;23.498;2023-07-31T14:35:58;7.57;;;2.90;;
73593;SDS011;64760;53.404;23.498;2023-07-31T14:38:25;4.95;;;2.70;;
73593;SDS011;64760;53.404;23.498;2023-07-31T14:40:51;8.18;;;7.03;;
73593;SDS011;64760;53.404;23.498;2023-07-31T14:45:45;5.13;;;2.85;;
73593;SDS011;64760;53.404;23.498;2023-07-31T14:48:12;4.90;;;2.33;;
73593;SDS011;64760;53.404;23.498;2023-07-31T14:50:39;5.07;;;2.25;;
73593;SDS011;64760;53.404;23.498;2023-07-31T14:53:06;3.88;;;1.90;;
73593;SDS011;64760;53.404;23.498;2023-07-31T14:58:01;6.10;;;2.50;;
73593;SDS011;64760;53.404;23.498;2023-07-31T15:00:29;6.35;;;2.95;;
73593;SDS011;64760;53.404;23.498;2023-07-31T15:02:55;7.40;;;2.42;;
73593;SDS011;64760;53.404;23.498;2023-07-31T15:05:22;4.30;;;1.92;;
73593;SDS011;64760;53.404;23.498;2023-07-31T15:10:36;6.07;;;3.25;;
73593;SDS011;64760;53.404;23.498;2023-07-31T15:13:03;3.58;;;2.80;;
73593;SDS011;64760;53.404;23.498;2023-07-31T15:15:30;5.68;;;2.13;;
73593;SDS011;64760;53.404;23.498;2023-07-31T15:17:56;6.38;;;1.88;;
73593;SDS011;64760;53.404;23.498;2023-07-31T15:20:23;6.28;;;3.67;;
73593;SDS011;64760;53.404;23.498;2023-07-31T15:22:49;6.05;;;3.35;;
73593;SDS011;64760;53.404;23.498;2023-07-31T15:25:15;3.38;;;2.05;;